KPPF/PPF METAR and TAF weather

Enter ICAO airport designator
Station Type Date Time Source
KPPF METAR 2019/08/20 09:52 UTC NOAA

KPPF 200952Z AUTO 16003KT 10SM CLR 25/24 A3000 RMK AO2 SLP146 T02500239


Station Type Date Time Source
KPPF Decoded METAR 2019/08/20 09:52 UTC NOAA

PARSONS TRI-CITY AIRPORT, KS, United States (KPPF) 37-20N 95-30W 274M
Aug 20, 2019 - 05:52 AM EDT / 2019.08.20 0952 UTC
Wind: from the SSE (160 degrees) at 3 MPH (3 KT):0
Visibility: 10 mile(s):0
Sky conditions: clear
Temperature: 77.0 F (25.0 C)
Dew Point: 75.0 F (23.9 C)
Relative Humidity: 93%
Pressure (altimeter): 30 in. Hg (1015 hPa)
ob: KPPF 200952Z AUTO 16003KT 10SM CLR 25/24 A3000 RMK AO2 SLP146 T02500239
cycle: 10

Station Type Date Time Source
KPPF TAF UTC NOAA

Error!

Example: see airport list